createdAt,value
2023-08-22T00:01:24.737Z,23.76
2023-08-22T00:04:26.826Z,23.73
2023-08-22T00:07:28.485Z,23.70
2023-08-22T00:10:30.523Z,23.67
2023-08-22T00:13:32.597Z,23.64
2023-08-22T00:16:34.823Z,23.61
2023-08-22T00:19:37.082Z,23.56
2023-08-22T00:22:39.272Z,23.52
2023-08-22T00:25:41.500Z,23.52
2023-08-22T00:28:43.555Z,23.50
2023-08-22T00:31:45.619Z,23.48
2023-08-22T00:34:47.730Z,23.47
2023-08-22T00:37:49.846Z,23.45
2023-08-22T00:40:52.031Z,23.44
2023-08-22T00:43:54.127Z,23.39
2023-08-22T00:46:56.607Z,23.39
2023-08-22T00:49:58.267Z,23.36
2023-08-22T00:53:02.315Z,23.33
2023-08-22T00:56:04.532Z,23.29
2023-08-22T00:59:07.000Z,23.24
2023-08-22T01:02:09.547Z,23.15
2023-08-22T01:05:11.543Z,23.14
2023-08-22T01:08:21.907Z,23.08
2023-08-22T01:11:29.029Z,23.04
2023-08-22T01:14:34.385Z,23.00
2023-08-22T01:17:38.723Z,22.94
2023-08-22T01:20:41.082Z,22.90
2023-08-22T01:23:43.204Z,22.81
2023-08-22T01:26:48.524Z,22.81
2023-08-22T01:29:57.341Z,22.76
2023-08-22T01:33:07.477Z,22.69
2023-08-22T01:36:11.853Z,22.67
2023-08-22T01:39:17.551Z,22.62
2023-08-22T01:42:20.155Z,22.57
2023-08-22T01:45:23.303Z,22.54
2023-08-22T01:48:25.431Z,22.49
2023-08-22T01:51:27.549Z,22.42
2023-08-22T01:54:29.644Z,22.40
2023-08-22T01:57:31.371Z,22.36
2023-08-22T02:00:34.777Z,22.29
2023-08-22T02:03:37.319Z,22.26
2023-08-22T02:06:39.652Z,22.20
2023-08-22T02:09:41.280Z,22.16
2023-08-22T02:12:42.962Z,22.10
2023-08-22T02:15:44.633Z,22.07
2023-08-22T02:18:47.026Z,22.04
2023-08-22T02:21:49.592Z,22.00
2023-08-22T02:24:51.256Z,21.95
2023-08-22T02:27:53.731Z,21.93
2023-08-22T02:30:57.055Z,21.89
2023-08-22T02:33:59.616Z,21.85
2023-08-22T02:37:01.741Z,21.82
2023-08-22T02:40:07.250Z,21.77
2023-08-22T02:43:09.819Z,21.74
2023-08-22T02:46:11.897Z,21.68
2023-08-22T02:49:13.851Z,21.65
2023-08-22T02:52:16.005Z,21.62
2023-08-22T02:55:18.621Z,21.58
2023-08-22T02:58:20.744Z,21.54
2023-08-22T03:01:22.982Z,21.51
2023-08-22T03:04:24.697Z,21.46
2023-08-22T03:07:26.968Z,21.42
2023-08-22T03:10:28.853Z,21.39
2023-08-22T03:13:32.471Z,21.36
2023-08-22T03:16:35.029Z,21.34
2023-08-22T03:19:37.123Z,21.29
2023-08-22T03:22:39.916Z,21.24
2023-08-22T03:25:42.941Z,21.19
2023-08-22T03:28:45.427Z,21.16
2023-08-22T03:31:47.786Z,21.12
2023-08-22T03:34:50.818Z,21.09
2023-08-22T03:37:52.557Z,21.06
2023-08-22T03:40:57.379Z,21.02
2023-08-22T03:44:00.120Z,21.01
2023-08-22T03:47:03.529Z,20.97
2023-08-22T03:50:18.943Z,20.95
2023-08-22T03:53:21.072Z,20.91
2023-08-22T03:56:23.529Z,20.89
2023-08-22T03:59:25.620Z,20.85
2023-08-22T04:02:27.341Z,20.82
2023-08-22T04:05:29.507Z,20.80
2023-08-22T04:08:31.623Z,20.77
2023-08-22T04:11:33.651Z,20.75
2023-08-22T04:14:35.794Z,20.73
2023-08-22T04:17:40.059Z,20.71
2023-08-22T04:20:44.429Z,20.69
2023-08-22T04:23:46.599Z,20.68
2023-08-22T04:26:48.246Z,20.67
2023-08-22T04:29:50.298Z,20.68
2023-08-22T04:32:53.796Z,20.69
2023-08-22T04:35:56.346Z,20.67
2023-08-22T04:38:58.104Z,20.64
2023-08-22T04:42:00.685Z,20.65
2023-08-22T04:45:06.449Z,20.65
2023-08-22T04:48:09.243Z,20.65
2023-08-22T04:51:12.113Z,20.64
2023-08-22T04:54:14.244Z,20.65
2023-08-22T04:57:16.496Z,20.67
2023-08-22T05:00:18.877Z,20.68
2023-08-22T05:03:20.647Z,20.70
2023-08-22T05:06:23.693Z,20.70
2023-08-22T05:09:25.443Z,20.71
2023-08-22T05:12:27.719Z,20.73
2023-08-22T05:15:29.896Z,20.77
2023-08-22T05:18:36.447Z,20.79
2023-08-22T05:21:38.706Z,20.79
2023-08-22T05:24:41.697Z,20.85
2023-08-22T05:27:45.298Z,20.89
2023-08-22T05:30:47.500Z,20.93
2023-08-22T05:33:50.413Z,20.98
2023-08-22T05:36:52.716Z,21.03
2023-08-22T05:39:55.667Z,21.08
2023-08-22T05:42:57.416Z,21.12
2023-08-22T05:46:01.896Z,21.13
2023-08-22T05:49:04.440Z,21.11
2023-08-22T05:52:06.979Z,21.15
2023-08-22T05:55:09.669Z,21.19
2023-08-22T05:58:13.205Z,21.21
2023-08-22T06:01:16.031Z,21.27
2023-08-22T06:04:19.357Z,21.30
2023-08-22T06:07:21.561Z,21.35
2023-08-22T06:10:26.600Z,21.43
2023-08-22T06:13:28.766Z,21.51
2023-08-22T06:16:30.560Z,21.60
2023-08-22T06:19:33.540Z,21.66
2023-08-22T06:22:35.369Z,21.76
2023-08-22T06:25:38.080Z,21.85
2023-08-22T06:28:41.300Z,21.93
2023-08-22T06:31:44.370Z,22.00
2023-08-22T06:34:46.170Z,22.09
2023-08-22T06:37:48.287Z,22.19
2023-08-22T06:40:51.219Z,22.31
2023-08-22T06:43:53.294Z,22.40
2023-08-22T06:46:56.259Z,22.49
2023-08-22T06:49:58.010Z,22.59
2023-08-22T06:53:03.073Z,22.68
2023-08-22T06:56:05.146Z,22.79
2023-08-22T06:59:07.354Z,22.88
2023-08-22T07:02:09.471Z,22.98
2023-08-22T07:05:13.060Z,23.06
2023-08-22T07:08:15.843Z,23.16
2023-08-22T07:11:18.085Z,23.26
2023-08-22T07:14:19.890Z,23.36
2023-08-22T07:17:21.968Z,23.46
2023-08-22T07:20:23.610Z,23.55
2023-08-22T07:23:25.434Z,23.63
2023-08-22T07:26:27.887Z,23.70
2023-08-22T07:29:30.251Z,23.79
2023-08-22T07:32:34.139Z,23.89
2023-08-22T07:35:36.091Z,23.98
2023-08-22T07:38:38.176Z,24.08
2023-08-22T07:41:40.290Z,24.18
2023-08-22T07:44:42.326Z,24.26
2023-08-22T07:47:44.648Z,24.32
2023-08-22T07:50:46.866Z,24.42
2023-08-22T07:53:48.966Z,24.49
2023-08-22T07:56:56.648Z,24.60
2023-08-22T08:00:10.391Z,24.70
2023-08-22T08:03:15.212Z,24.78
2023-08-22T08:06:19.353Z,24.89
2023-08-22T08:09:34.457Z,24.96
2023-08-22T08:12:37.406Z,25.01
2023-08-22T08:15:40.737Z,25.09
2023-08-22T08:18:42.482Z,25.20
2023-08-22T08:21:44.765Z,25.25
2023-08-22T08:24:46.902Z,25.34
2023-08-22T08:27:50.925Z,25.40
2023-08-22T08:30:53.376Z,25.48
2023-08-22T08:33:55.519Z,25.55
2023-08-22T08:36:57.635Z,25.62
2023-08-22T08:39:59.731Z,25.69
2023-08-22T08:43:02.544Z,25.79
2023-08-22T08:46:05.214Z,25.84
2023-08-22T08:49:06.959Z,25.92
2023-08-22T08:52:11.896Z,26.00
2023-08-22T08:55:13.944Z,26.09
2023-08-22T08:58:15.595Z,26.13
2023-08-22T09:01:18.701Z,26.21
2023-08-22T09:04:21.191Z,26.28
2023-08-22T09:07:23.128Z,26.31
2023-08-22T09:10:37.909Z,26.44
2023-08-22T09:13:55.551Z,26.52
2023-08-22T09:17:02.090Z,26.59
2023-08-22T09:20:11.752Z,26.66
2023-08-22T09:23:43.985Z,26.75
2023-08-22T09:26:48.484Z,26.82
2023-08-22T09:29:50.653Z,26.89
2023-08-22T09:33:01.101Z,26.95
2023-08-22T09:36:03.665Z,27.04
2023-08-22T09:39:07.027Z,27.13
2023-08-22T09:42:10.628Z,27.20
2023-08-22T09:45:12.784Z,27.25
2023-08-22T09:48:23.411Z,27.33
2023-08-22T09:51:25.930Z,27.42
2023-08-22T09:54:28.419Z,27.47
2023-08-22T09:57:32.215Z,27.51
2023-08-22T10:00:35.850Z,27.64
2023-08-22T10:03:38.447Z,27.71
2023-08-22T10:09:45.792Z,27.81
2023-08-22T10:12:56.920Z,27.88
2023-08-22T10:15:59.625Z,27.96
2023-08-22T10:19:04.903Z,28.02
2023-08-22T10:22:14.495Z,28.15
2023-08-22T10:25:17.254Z,28.19
2023-08-22T10:28:21.848Z,28.22
2023-08-22T10:31:28.470Z,28.30
2023-08-22T10:34:36.363Z,28.38
2023-08-22T10:37:55.057Z,28.44
2023-08-22T10:40:57.197Z,28.46
2023-08-22T10:43:59.870Z,28.58
2023-08-22T10:47:07.100Z,28.66
2023-08-22T10:50:17.039Z,28.76
2023-08-22T10:53:24.703Z,28.82
2023-08-22T10:56:29.080Z,28.88
2023-08-22T10:59:30.845Z,28.92
2023-08-22T11:02:34.701Z,28.95
2023-08-22T11:05:37.412Z,29.04
2023-08-22T11:08:40.513Z,29.10
2023-08-22T11:11:42.883Z,29.13
2023-08-22T11:14:46.931Z,29.18
2023-08-22T11:17:51.534Z,29.23
2023-08-22T11:20:59.244Z,29.26
2023-08-22T11:24:02.288Z,29.28
2023-08-22T11:27:05.495Z,29.38
2023-08-22T11:30:16.906Z,29.43
2023-08-22T11:33:22.255Z,29.49
2023-08-22T11:36:27.993Z,29.53
2023-08-22T11:39:31.301Z,29.61
2023-08-22T11:42:35.444Z,29.65
2023-08-22T11:45:50.011Z,29.69
2023-08-22T11:48:53.769Z,29.74
2023-08-22T11:51:56.352Z,29.78
2023-08-22T11:55:10.175Z,29.86
2023-08-22T11:58:17.155Z,29.91
2023-08-22T12:01:22.086Z,29.94
2023-08-22T12:04:24.252Z,29.92
2023-08-22T12:07:28.045Z,29.94
2023-08-22T12:10:53.924Z,29.94
2023-08-22T12:13:59.047Z,29.96
2023-08-22T12:17:02.156Z,29.98
2023-08-22T12:20:06.020Z,30.01
2023-08-22T12:23:18.620Z,30.03
2023-08-22T12:26:20.737Z,30.03
2023-08-22T12:29:22.520Z,29.99
2023-08-22T12:32:25.453Z,30.02
2023-08-22T12:35:28.617Z,30.03
2023-08-22T12:38:34.785Z,30.13
2023-08-22T12:41:42.239Z,30.20
2023-08-22T12:44:46.458Z,30.26
2023-08-22T12:47:51.047Z,30.32
2023-08-22T12:50:54.055Z,30.36
2023-08-22T12:53:56.471Z,30.45
2023-08-22T12:56:58.580Z,30.52
2023-08-22T13:00:02.538Z,30.62
2023-08-22T13:03:05.864Z,30.69
2023-08-22T13:06:09.080Z,30.74
2023-08-22T13:09:11.640Z,30.79
2023-08-22T13:12:13.397Z,30.78
2023-08-22T13:15:15.239Z,30.88
2023-08-22T13:18:18.403Z,30.96
2023-08-22T13:21:20.613Z,31.10
2023-08-22T13:24:22.796Z,31.26
2023-08-22T13:27:24.950Z,31.40
2023-08-22T13:30:27.750Z,31.57
2023-08-22T13:33:30.631Z,31.73
2023-08-22T13:36:33.006Z,31.83
2023-08-22T13:39:35.386Z,31.99
2023-08-22T13:42:39.090Z,32.15
2023-08-22T13:45:41.259Z,32.31
2023-08-22T13:48:43.463Z,32.34
2023-08-22T13:51:45.544Z,32.46
2023-08-22T13:54:47.171Z,32.61
2023-08-22T13:57:49.345Z,32.68
2023-08-22T14:00:51.635Z,32.46
2023-08-22T14:03:53.982Z,32.42
2023-08-22T14:06:55.642Z,32.54
2023-08-22T14:09:57.436Z,32.72
2023-08-22T14:12:59.589Z,32.93
2023-08-22T14:16:01.469Z,33.17
2023-08-22T14:19:03.445Z,33.31
2023-08-22T14:22:05.579Z,33.33
2023-08-22T14:25:08.172Z,33.31
2023-08-22T14:28:10.534Z,33.30
2023-08-22T14:31:12.703Z,33.47
2023-08-22T14:34:14.820Z,33.54
2023-08-22T14:37:22.799Z,33.62
2023-08-22T14:40:25.369Z,33.86
2023-08-22T14:43:30.662Z,33.89
2023-08-22T14:46:32.841Z,33.95
2023-08-22T14:49:34.943Z,34.05
2023-08-22T14:52:37.036Z,34.20
2023-08-22T14:55:38.722Z,34.39
2023-08-22T14:58:44.268Z,34.56
2023-08-22T15:01:46.217Z,34.67
2023-08-22T15:04:47.977Z,34.71
2023-08-22T15:07:50.401Z,34.90
2023-08-22T15:10:53.177Z,35.12
2023-08-22T15:13:55.973Z,35.34
2023-08-22T15:16:58.015Z,35.59
2023-08-22T15:20:00.299Z,35.72
2023-08-22T15:23:02.170Z,35.78
2023-08-22T15:26:05.200Z,35.76
2023-08-22T15:29:07.438Z,35.77
2023-08-22T15:32:09.656Z,35.90
2023-08-22T15:35:11.389Z,36.02
2023-08-22T15:38:14.851Z,36.18
2023-08-22T15:41:17.773Z,36.15
2023-08-22T15:44:21.146Z,36.05
2023-08-22T15:47:23.273Z,36.05
2023-08-22T15:50:24.940Z,36.05
2023-08-22T15:53:27.114Z,36.08
2023-08-22T15:56:29.381Z,36.03
2023-08-22T15:59:31.749Z,35.95
2023-08-22T16:02:33.660Z,35.89
2023-08-22T16:05:37.369Z,35.79
2023-08-22T16:08:39.497Z,35.71
2023-08-22T16:11:41.733Z,35.69
2023-08-22T16:14:43.874Z,35.52
2023-08-22T16:17:46.371Z,35.20
2023-08-22T16:20:52.017Z,35.00
2023-08-22T16:23:54.890Z,34.79
2023-08-22T16:26:56.582Z,34.52
2023-08-22T16:29:58.715Z,34.20
2023-08-22T16:33:00.922Z,33.90
2023-08-22T16:36:04.376Z,33.67
2023-08-22T16:39:06.639Z,33.45
2023-08-22T16:42:09.228Z,33.31
2023-08-22T16:45:12.415Z,33.19
2023-08-22T16:48:16.527Z,33.03
2023-08-22T16:51:19.025Z,32.83
2023-08-22T16:54:20.778Z,32.69
2023-08-22T16:57:23.569Z,32.58
2023-08-22T17:00:25.905Z,32.45
2023-08-22T17:03:28.505Z,32.34
2023-08-22T17:06:30.706Z,32.17
2023-08-22T17:09:32.863Z,32.06
2023-08-22T17:12:34.534Z,31.96
2023-08-22T17:15:36.726Z,31.84
2023-08-22T17:18:38.400Z,31.73
2023-08-22T17:21:41.518Z,31.63
2023-08-22T17:24:43.154Z,31.55
2023-08-22T17:27:45.183Z,31.45
2023-08-22T17:30:47.593Z,31.34
2023-08-22T17:33:50.079Z,31.23
2023-08-22T17:36:52.407Z,31.13
2023-08-22T17:39:54.231Z,31.03
2023-08-22T17:42:57.260Z,30.94
2023-08-22T17:45:59.673Z,30.87
2023-08-22T17:49:01.931Z,30.78
2023-08-22T17:52:04.699Z,30.69
2023-08-22T17:55:07.076Z,30.61
2023-08-22T17:58:09.296Z,30.51
2023-08-22T18:01:11.257Z,30.46
2023-08-22T18:04:13.227Z,30.35
2023-08-22T18:07:15.296Z,30.23
2023-08-22T18:10:17.749Z,30.13
2023-08-22T18:13:20.623Z,29.96
2023-08-22T18:16:23.640Z,29.86
2023-08-22T18:19:26.491Z,29.77
2023-08-22T18:22:28.618Z,29.68
2023-08-22T18:25:30.283Z,29.59
2023-08-22T18:28:33.244Z,29.50
2023-08-22T18:31:35.810Z,29.40
2023-08-22T18:34:40.362Z,29.31
2023-08-22T18:37:43.367Z,29.22
2023-08-22T18:40:46.209Z,29.15
2023-08-22T18:43:49.581Z,29.03
2023-08-22T18:46:51.328Z,28.96
2023-08-22T18:49:53.544Z,28.87
2023-08-22T18:52:55.204Z,28.79
2023-08-22T18:55:58.403Z,28.71
2023-08-22T18:59:01.638Z,28.64
2023-08-22T19:02:03.472Z,28.52
2023-08-22T19:05:06.863Z,28.41
2023-08-22T19:08:08.961Z,28.24
2023-08-22T19:11:11.449Z,28.15
2023-08-22T19:14:13.092Z,28.02
2023-08-22T19:17:15.377Z,27.87
2023-08-22T19:20:18.572Z,27.73
2023-08-22T19:23:21.209Z,27.62
2023-08-22T19:26:22.976Z,27.51
2023-08-22T19:29:25.070Z,27.43
2023-08-22T19:32:45.997Z,27.36
2023-08-22T19:35:49.393Z,27.27
2023-08-22T19:38:52.733Z,27.18
2023-08-22T19:41:54.457Z,27.08
2023-08-22T19:44:57.227Z,27.01
2023-08-22T19:47:59.401Z,26.93
2023-08-22T19:51:04.115Z,26.87
2023-08-22T19:54:08.843Z,26.80
2023-08-22T19:57:11.514Z,26.76
2023-08-22T20:00:16.994Z,26.74
2023-08-22T20:03:20.628Z,26.69
2023-08-22T20:06:29.401Z,26.63
2023-08-22T20:09:32.045Z,26.59
2023-08-22T20:12:33.991Z,26.54
2023-08-22T20:15:35.626Z,26.48
2023-08-22T20:18:37.281Z,26.40
2023-08-22T20:21:39.409Z,26.34
2023-08-22T20:24:41.014Z,26.29
2023-08-22T20:27:46.480Z,26.25
2023-08-22T20:30:53.825Z,26.22
2023-08-22T20:33:57.045Z,26.20
2023-08-22T20:36:59.127Z,26.18
2023-08-22T20:40:01.619Z,26.13
2023-08-22T20:43:03.831Z,26.08
2023-08-22T20:46:05.992Z,26.05
2023-08-22T20:49:08.142Z,25.98
2023-08-22T20:52:09.763Z,25.95
2023-08-22T20:55:12.466Z,25.90
2023-08-22T20:58:14.103Z,25.89
2023-08-22T21:01:17.313Z,25.84
2023-08-22T21:04:19.472Z,25.79
2023-08-22T21:07:22.461Z,25.73
2023-08-22T21:10:24.205Z,25.66
2023-08-22T21:13:26.407Z,25.59
2023-08-22T21:16:29.879Z,25.52
2023-08-22T21:19:32.523Z,25.42
2023-08-22T21:22:34.668Z,25.38
2023-08-22T21:25:37.682Z,25.31
2023-08-22T21:28:40.619Z,25.23
2023-08-22T21:31:43.119Z,25.15
2023-08-22T21:34:45.725Z,25.09
2023-08-22T21:37:47.828Z,25.01
2023-08-22T21:40:49.718Z,24.97
2023-08-22T21:43:51.738Z,24.92
2023-08-22T21:46:53.784Z,24.88
2023-08-22T21:49:58.096Z,24.83
2023-08-22T21:53:01.018Z,24.80
2023-08-22T21:56:03.110Z,24.78
2023-08-22T21:59:05.316Z,24.75
2023-08-22T22:02:07.010Z,24.73
2023-08-22T22:05:09.152Z,24.71
2023-08-22T22:08:11.235Z,24.68
2023-08-22T22:11:13.379Z,24.63
2023-08-22T22:14:16.165Z,24.62
2023-08-22T22:17:18.468Z,24.57
2023-08-22T22:20:20.530Z,24.54
2023-08-22T22:23:22.279Z,24.52
2023-08-22T22:26:24.299Z,24.48
2023-08-22T22:29:25.968Z,24.44
2023-08-22T22:32:28.580Z,24.40
2023-08-22T22:35:30.689Z,24.37
2023-08-22T22:38:32.942Z,24.34
2023-08-22T22:41:35.149Z,24.32
2023-08-22T22:44:37.220Z,24.28
2023-08-22T22:47:40.758Z,24.25
2023-08-22T22:50:42.495Z,24.20
2023-08-22T22:53:44.592Z,24.17
2023-08-22T22:56:46.278Z,24.14
2023-08-22T22:59:47.957Z,24.10
2023-08-22T23:02:50.435Z,24.09
2023-08-22T23:05:52.733Z,24.06
2023-08-22T23:08:54.345Z,24.01
2023-08-22T23:11:58.171Z,24.02
2023-08-22T23:15:04.929Z,24.03
2023-08-22T23:18:06.623Z,23.98
2023-08-22T23:21:09.975Z,23.98
2023-08-22T23:24:11.558Z,23.98
2023-08-22T23:27:14.320Z,23.97
2023-08-22T23:30:17.359Z,23.93
2023-08-22T23:33:19.430Z,23.92
2023-08-22T23:36:21.475Z,23.88
2023-08-22T23:39:23.109Z,23.87
2023-08-22T23:42:25.502Z,23.87
2023-08-22T23:45:30.929Z,23.87
2023-08-22T23:48:33.048Z,23.83
2023-08-22T23:51:36.040Z,23.82
2023-08-22T23:54:38.498Z,23.80
2023-08-22T23:57:40.869Z,23.79
